Amherst, Virginia
Current Conditions -  °F | °C
As of 4:54 PM on Monday 24 Nov 2014 (Local Time) from KLYH Reporting Station
Clear Clear  
Wind Chill: 66°   Ceiling: Unl
Heat Index: 66°   Visibility: 10mi
Dew Point: 52°   Wind: 12mph
Humidity: 60%   Direction: 210°SSW
Pressure: 29.74"   Gusts: NA
Location:  37.59°N, 79.05°W
Report Text: KLYH 242154Z 21010KT 10SM CLR 19/11 A2974 RMK AO2 SLP064 T01890111 $
Loading
Personal Weather Stations






























Interactive Weather Map New forecast layout! Learn more

10-Day Weather Forecast

Advertisements
Track Severe Weather on mobile